sensor_id;sensor_type;location;lat;lon;timestamp;P1;durP1;ratioP1;P2;durP2;ratioP2
76157;SDS011;64907;51.574;6.502;2022-12-18T00:00:27;28.23;;;15.13;;
76157;SDS011;64907;51.574;6.502;2022-12-18T00:03:00;27.52;;;14.30;;
76157;SDS011;64907;51.574;6.502;2022-12-18T00:05:25;24.80;;;14.07;;
76157;SDS011;64907;51.574;6.502;2022-12-18T00:07:50;27.30;;;15.38;;
76157;SDS011;64907;51.574;6.502;2022-12-18T00:10:15;25.42;;;14.15;;
76157;SDS011;64907;51.574;6.502;2022-12-18T00:12:40;26.10;;;14.38;;
76157;SDS011;64907;51.574;6.502;2022-12-18T00:15:06;27.33;;;13.73;;
76157;SDS011;64907;51.574;6.502;2022-12-18T00:17:31;28.17;;;14.52;;
76157;SDS011;64907;51.574;6.502;2022-12-18T00:19:56;24.55;;;14.07;;
76157;SDS011;64907;51.574;6.502;2022-12-18T00:22:22;26.15;;;13.07;;
76157;SDS011;64907;51.574;6.502;2022-12-18T00:24:47;24.25;;;13.90;;
76157;SDS011;64907;51.574;6.502;2022-12-18T00:27:12;24.55;;;14.20;;
76157;SDS011;64907;51.574;6.502;2022-12-18T00:29:37;22.55;;;14.15;;
76157;SDS011;64907;51.574;6.502;2022-12-18T00:32:02;26.90;;;13.57;;
76157;SDS011;64907;51.574;6.502;2022-12-18T00:34:27;24.45;;;13.77;;
76157;SDS011;64907;51.574;6.502;2022-12-18T00:36:53;26.17;;;14.80;;
76157;SDS011;64907;51.574;6.502;2022-12-18T00:39:18;25.70;;;13.63;;
76157;SDS011;64907;51.574;6.502;2022-12-18T00:41:45;25.98;;;13.80;;
76157;SDS011;64907;51.574;6.502;2022-12-18T00:44:29;27.75;;;15.05;;
76157;SDS011;64907;51.574;6.502;2022-12-18T00:46:54;23.27;;;13.40;;
76157;SDS011;64907;51.574;6.502;2022-12-18T00:49:19;23.35;;;13.00;;
76157;SDS011;64907;51.574;6.502;2022-12-18T00:51:45;28.70;;;13.48;;
76157;SDS011;64907;51.574;6.502;2022-12-18T00:54:10;25.02;;;12.77;;
76157;SDS011;64907;51.574;6.502;2022-12-18T00:56:36;24.05;;;13.73;;
76157;SDS011;64907;51.574;6.502;2022-12-18T00:59:02;21.95;;;13.02;;
76157;SDS011;64907;51.574;6.502;2022-12-18T01:01:27;24.98;;;13.50;;
76157;SDS011;64907;51.574;6.502;2022-12-18T01:03:52;22.00;;;12.57;;
76157;SDS011;64907;51.574;6.502;2022-12-18T01:06:17;24.00;;;13.10;;
76157;SDS011;64907;51.574;6.502;2022-12-18T01:08:42;25.42;;;14.30;;
76157;SDS011;64907;51.574;6.502;2022-12-18T01:11:08;26.02;;;13.50;;
76157;SDS011;64907;51.574;6.502;2022-12-18T01:13:34;30.13;;;14.38;;
76157;SDS011;64907;51.574;6.502;2022-12-18T01:16:00;28.17;;;15.65;;
76157;SDS011;64907;51.574;6.502;2022-12-18T01:18:25;27.08;;;14.32;;
76157;SDS011;64907;51.574;6.502;2022-12-18T01:20:50;22.85;;;13.43;;
76157;SDS011;64907;51.574;6.502;2022-12-18T01:23:15;24.13;;;14.02;;
76157;SDS011;64907;51.574;6.502;2022-12-18T01:25:40;25.17;;;13.10;;
76157;SDS011;64907;51.574;6.502;2022-12-18T01:28:05;26.95;;;14.77;;
76157;SDS011;64907;51.574;6.502;2022-12-18T01:30:31;24.83;;;14.48;;
76157;SDS011;64907;51.574;6.502;2022-12-18T01:32:56;25.08;;;13.90;;
76157;SDS011;64907;51.574;6.502;2022-12-18T01:35:21;26.15;;;13.43;;
76157;SDS011;64907;51.574;6.502;2022-12-18T01:37:46;23.73;;;13.38;;
76157;SDS011;64907;51.574;6.502;2022-12-18T01:40:11;22.58;;;13.27;;
76157;SDS011;64907;51.574;6.502;2022-12-18T01:42:37;23.80;;;13.90;;
76157;SDS011;64907;51.574;6.502;2022-12-18T01:47:38;24.80;;;13.93;;
76157;SDS011;64907;51.574;6.502;2022-12-18T01:53:00;25.77;;;13.20;;
76157;SDS011;64907;51.574;6.502;2022-12-18T01:55:28;24.55;;;13.15;;
76157;SDS011;64907;51.574;6.502;2022-12-18T01:57:55;24.77;;;13.45;;
76157;SDS011;64907;51.574;6.502;2022-12-18T02:00:27;24.77;;;12.35;;
76157;SDS011;64907;51.574;6.502;2022-12-18T02:02:52;23.92;;;12.27;;
76157;SDS011;64907;51.574;6.502;2022-12-18T02:05:19;23.33;;;11.18;;
76157;SDS011;64907;51.574;6.502;2022-12-18T02:07:55;20.92;;;11.65;;
76157;SDS011;64907;51.574;6.502;2022-12-18T02:15:54;28.67;;;13.07;;
76157;SDS011;64907;51.574;6.502;2022-12-18T02:18:44;28.20;;;14.20;;
76157;SDS011;64907;51.574;6.502;2022-12-18T02:29:15;22.93;;;13.27;;
76157;SDS011;64907;51.574;6.502;2022-12-18T02:31:46;24.88;;;12.93;;
76157;SDS011;64907;51.574;6.502;2022-12-18T02:34:14;24.88;;;13.13;;
76157;SDS011;64907;51.574;6.502;2022-12-18T02:36:40;22.42;;;13.05;;
76157;SDS011;64907;51.574;6.502;2022-12-18T02:39:07;21.03;;;12.20;;
76157;SDS011;64907;51.574;6.502;2022-12-18T02:41:33;22.33;;;13.52;;
76157;SDS011;64907;51.574;6.502;2022-12-18T02:44:02;24.20;;;12.20;;
76157;SDS011;64907;51.574;6.502;2022-12-18T02:46:35;22.25;;;13.20;;
76157;SDS011;64907;51.574;6.502;2022-12-18T02:51:56;24.30;;;13.77;;
76157;SDS011;64907;51.574;6.502;2022-12-18T02:54:28;29.98;;;14.13;;
76157;SDS011;64907;51.574;6.502;2022-12-18T02:57:00;28.87;;;14.27;;
76157;SDS011;64907;51.574;6.502;2022-12-18T02:59:39;25.83;;;13.80;;
76157;SDS011;64907;51.574;6.502;2022-12-18T03:02:15;28.07;;;14.10;;
76157;SDS011;64907;51.574;6.502;2022-12-18T03:04:43;23.63;;;13.93;;
76157;SDS011;64907;51.574;6.502;2022-12-18T03:07:11;25.20;;;12.95;;
76157;SDS011;64907;51.574;6.502;2022-12-18T03:09:41;26.08;;;14.35;;
76157;SDS011;64907;51.574;6.502;2022-12-18T03:12:14;22.90;;;13.40;;
76157;SDS011;64907;51.574;6.502;2022-12-18T03:14:54;21.73;;;13.33;;
76157;SDS011;64907;51.574;6.502;2022-12-18T03:17:23;21.47;;;13.50;;
76157;SDS011;64907;51.574;6.502;2022-12-18T03:19:50;24.75;;;14.10;;
76157;SDS011;64907;51.574;6.502;2022-12-18T03:22:16;22.77;;;13.88;;
76157;SDS011;64907;51.574;6.502;2022-12-18T03:24:45;26.73;;;14.15;;
76157;SDS011;64907;51.574;6.502;2022-12-18T03:27:11;24.95;;;14.02;;
76157;SDS011;64907;51.574;6.502;2022-12-18T03:29:45;20.38;;;12.80;;
76157;SDS011;64907;51.574;6.502;2022-12-18T03:32:17;24.92;;;13.80;;
76157;SDS011;64907;51.574;6.502;2022-12-18T03:34:45;22.13;;;12.18;;
76157;SDS011;64907;51.574;6.502;2022-12-18T03:37:12;23.20;;;13.00;;
76157;SDS011;64907;51.574;6.502;2022-12-18T03:39:37;21.13;;;12.25;;
76157;SDS011;64907;51.574;6.502;2022-12-18T03:42:21;24.48;;;13.88;;
76157;SDS011;64907;51.574;6.502;2022-12-18T03:50:18;24.90;;;13.40;;
76157;SDS011;64907;51.574;6.502;2022-12-18T03:52:56;19.83;;;11.95;;
76157;SDS011;64907;51.574;6.502;2022-12-18T03:55:22;20.90;;;12.30;;
76157;SDS011;64907;51.574;6.502;2022-12-18T03:57:49;23.45;;;12.20;;
76157;SDS011;64907;51.574;6.502;2022-12-18T04:02:58;17.30;;;11.65;;
76157;SDS011;64907;51.574;6.502;2022-12-18T04:05:25;20.08;;;12.45;;
76157;SDS011;64907;51.574;6.502;2022-12-18T04:07:51;20.52;;;12.15;;
76157;SDS011;64907;51.574;6.502;2022-12-18T04:10:16;21.85;;;12.20;;
76157;SDS011;64907;51.574;6.502;2022-12-18T04:12:42;23.88;;;12.38;;
76157;SDS011;64907;51.574;6.502;2022-12-18T04:17:37;21.98;;;13.30;;
76157;SDS011;64907;51.574;6.502;2022-12-18T04:20:02;22.20;;;13.00;;
76157;SDS011;64907;51.574;6.502;2022-12-18T04:22:30;21.20;;;12.02;;
76157;SDS011;64907;51.574;6.502;2022-12-18T04:24:55;19.77;;;12.25;;
76157;SDS011;64907;51.574;6.502;2022-12-18T04:27:21;18.60;;;11.52;;
76157;SDS011;64907;51.574;6.502;2022-12-18T04:29:49;21.35;;;12.25;;
76157;SDS011;64907;51.574;6.502;2022-12-18T04:32:14;18.13;;;11.40;;
76157;SDS011;64907;51.574;6.502;2022-12-18T04:34:40;16.17;;;10.63;;
76157;SDS011;64907;51.574;6.502;2022-12-18T04:37:05;17.90;;;11.27;;
76157;SDS011;64907;51.574;6.502;2022-12-18T04:39:30;21.23;;;12.02;;
76157;SDS011;64907;51.574;6.502;2022-12-18T04:41:55;19.90;;;12.07;;
76157;SDS011;64907;51.574;6.502;2022-12-18T04:44:20;18.25;;;11.25;;
76157;SDS011;64907;51.574;6.502;2022-12-18T04:46:45;16.95;;;10.95;;
76157;SDS011;64907;51.574;6.502;2022-12-18T04:49:11;18.38;;;11.30;;
76157;SDS011;64907;51.574;6.502;2022-12-18T04:51:36;17.52;;;10.63;;
76157;SDS011;64907;51.574;6.502;2022-12-18T04:54:02;18.45;;;10.40;;
76157;SDS011;64907;51.574;6.502;2022-12-18T04:56:27;18.25;;;11.45;;
76157;SDS011;64907;51.574;6.502;2022-12-18T04:58:52;15.77;;;9.75;;
76157;SDS011;64907;51.574;6.502;2022-12-18T05:01:18;14.70;;;9.23;;
76157;SDS011;64907;51.574;6.502;2022-12-18T05:03:43;15.73;;;10.02;;
76157;SDS011;64907;51.574;6.502;2022-12-18T05:06:08;15.60;;;9.48;;
76157;SDS011;64907;51.574;6.502;2022-12-18T05:08:34;13.73;;;8.85;;
76157;SDS011;64907;51.574;6.502;2022-12-18T05:11:00;16.20;;;9.65;;
76157;SDS011;64907;51.574;6.502;2022-12-18T05:13:25;12.82;;;8.90;;
76157;SDS011;64907;51.574;6.502;2022-12-18T05:15:51;13.27;;;9.10;;
76157;SDS011;64907;51.574;6.502;2022-12-18T05:18:16;16.65;;;10.13;;
76157;SDS011;64907;51.574;6.502;2022-12-18T05:20:41;15.15;;;10.77;;
76157;SDS011;64907;51.574;6.502;2022-12-18T05:23:06;13.25;;;8.52;;
76157;SDS011;64907;51.574;6.502;2022-12-18T05:25:35;15.65;;;8.82;;
76157;SDS011;64907;51.574;6.502;2022-12-18T05:28:00;15.57;;;9.23;;
76157;SDS011;64907;51.574;6.502;2022-12-18T05:30:25;14.65;;;8.98;;
76157;SDS011;64907;51.574;6.502;2022-12-18T05:32:52;16.13;;;10.27;;
76157;SDS011;64907;51.574;6.502;2022-12-18T05:35:18;12.52;;;9.00;;
76157;SDS011;64907;51.574;6.502;2022-12-18T05:37:43;16.80;;;9.45;;
76157;SDS011;64907;51.574;6.502;2022-12-18T05:40:08;13.98;;;8.65;;
76157;SDS011;64907;51.574;6.502;2022-12-18T05:42:34;14.25;;;9.07;;
76157;SDS011;64907;51.574;6.502;2022-12-18T05:44:59;11.65;;;8.63;;
76157;SDS011;64907;51.574;6.502;2022-12-18T05:47:24;14.10;;;8.68;;
76157;SDS011;64907;51.574;6.502;2022-12-18T05:49:49;15.00;;;8.38;;
76157;SDS011;64907;51.574;6.502;2022-12-18T05:52:14;11.45;;;7.85;;
76157;SDS011;64907;51.574;6.502;2022-12-18T05:54:40;16.20;;;8.98;;
76157;SDS011;64907;51.574;6.502;2022-12-18T05:57:05;13.13;;;7.82;;
76157;SDS011;64907;51.574;6.502;2022-12-18T05:59:30;16.25;;;8.73;;
76157;SDS011;64907;51.574;6.502;2022-12-18T06:01:55;13.40;;;7.63;;
76157;SDS011;64907;51.574;6.502;2022-12-18T06:04:20;13.38;;;8.02;;
76157;SDS011;64907;51.574;6.502;2022-12-18T06:06:46;16.90;;;7.55;;
76157;SDS011;64907;51.574;6.502;2022-12-18T06:09:11;16.38;;;8.48;;
76157;SDS011;64907;51.574;6.502;2022-12-18T06:11:37;14.23;;;8.80;;
76157;SDS011;64907;51.574;6.502;2022-12-18T06:14:02;15.23;;;9.27;;
76157;SDS011;64907;51.574;6.502;2022-12-18T06:16:29;14.38;;;8.98;;
76157;SDS011;64907;51.574;6.502;2022-12-18T06:18:57;14.02;;;8.63;;
76157;SDS011;64907;51.574;6.502;2022-12-18T06:21:23;14.25;;;8.77;;
76157;SDS011;64907;51.574;6.502;2022-12-18T06:23:48;14.80;;;8.63;;
76157;SDS011;64907;51.574;6.502;2022-12-18T06:26:13;14.07;;;9.15;;
76157;SDS011;64907;51.574;6.502;2022-12-18T06:28:42;14.52;;;9.65;;
76157;SDS011;64907;51.574;6.502;2022-12-18T06:31:07;16.42;;;10.00;;
76157;SDS011;64907;51.574;6.502;2022-12-18T06:33:33;15.52;;;9.52;;
76157;SDS011;64907;51.574;6.502;2022-12-18T06:36:09;15.82;;;8.80;;
76157;SDS011;64907;51.574;6.502;2022-12-18T06:38:35;15.05;;;9.07;;
76157;SDS011;64907;51.574;6.502;2022-12-18T06:41:05;15.35;;;8.93;;
76157;SDS011;64907;51.574;6.502;2022-12-18T06:43:30;12.20;;;7.85;;
76157;SDS011;64907;51.574;6.502;2022-12-18T06:45:59;14.40;;;8.73;;
76157;SDS011;64907;51.574;6.502;2022-12-18T06:48:32;13.38;;;8.35;;
76157;SDS011;64907;51.574;6.502;2022-12-18T06:50:57;12.75;;;8.15;;
76157;SDS011;64907;51.574;6.502;2022-12-18T06:53:23;11.60;;;8.20;;
76157;SDS011;64907;51.574;6.502;2022-12-18T06:55:48;12.77;;;8.38;;
76157;SDS011;64907;51.574;6.502;2022-12-18T07:00:43;16.50;;;9.43;;
76157;SDS011;64907;51.574;6.502;2022-12-18T07:03:08;14.25;;;9.18;;
76157;SDS011;64907;51.574;6.502;2022-12-18T07:05:33;17.48;;;9.18;;
76157;SDS011;64907;51.574;6.502;2022-12-18T07:07:58;16.17;;;9.43;;
76157;SDS011;64907;51.574;6.502;2022-12-18T07:10:24;14.02;;;8.15;;
76157;SDS011;64907;51.574;6.502;2022-12-18T07:12:49;10.60;;;7.47;;
76157;SDS011;64907;51.574;6.502;2022-12-18T07:15:14;13.20;;;8.48;;
76157;SDS011;64907;51.574;6.502;2022-12-18T07:17:39;10.32;;;7.50;;
76157;SDS011;64907;51.574;6.502;2022-12-18T07:20:04;12.27;;;8.40;;
76157;SDS011;64907;51.574;6.502;2022-12-18T07:22:30;13.10;;;8.05;;
76157;SDS011;64907;51.574;6.502;2022-12-18T07:24:56;10.43;;;7.50;;
76157;SDS011;64907;51.574;6.502;2022-12-18T07:27:21;11.32;;;7.70;;
76157;SDS011;64907;51.574;6.502;2022-12-18T07:29:47;12.77;;;8.48;;
76157;SDS011;64907;51.574;6.502;2022-12-18T07:32:13;11.25;;;7.93;;
76157;SDS011;64907;51.574;6.502;2022-12-18T07:34:38;10.68;;;7.20;;
76157;SDS011;64907;51.574;6.502;2022-12-18T07:37:03;11.10;;;7.70;;
76157;SDS011;64907;51.574;6.502;2022-12-18T07:39:28;14.48;;;8.07;;
76157;SDS011;64907;51.574;6.502;2022-12-18T07:41:53;19.10;;;9.40;;
76157;SDS011;64907;51.574;6.502;2022-12-18T07:44:37;13.20;;;8.57;;
76157;SDS011;64907;51.574;6.502;2022-12-18T07:47:04;12.57;;;8.05;;
76157;SDS011;64907;51.574;6.502;2022-12-18T07:49:30;13.35;;;8.10;;
76157;SDS011;64907;51.574;6.502;2022-12-18T07:51:55;10.00;;;7.55;;
76157;SDS011;64907;51.574;6.502;2022-12-18T07:54:21;12.77;;;7.75;;
76157;SDS011;64907;51.574;6.502;2022-12-18T07:56:46;12.30;;;8.27;;
76157;SDS011;64907;51.574;6.502;2022-12-18T07:59:11;12.32;;;7.53;;
76157;SDS011;64907;51.574;6.502;2022-12-18T08:01:37;12.35;;;8.13;;
76157;SDS011;64907;51.574;6.502;2022-12-18T08:04:02;14.60;;;8.45;;
76157;SDS011;64907;51.574;6.502;2022-12-18T08:06:27;13.00;;;8.23;;
76157;SDS011;64907;51.574;6.502;2022-12-18T08:08:54;11.45;;;7.82;;
76157;SDS011;64907;51.574;6.502;2022-12-18T08:11:20;14.77;;;8.45;;
76157;SDS011;64907;51.574;6.502;2022-12-18T08:13:45;11.95;;;7.65;;
76157;SDS011;64907;51.574;6.502;2022-12-18T08:16:10;14.82;;;8.38;;
76157;SDS011;64907;51.574;6.502;2022-12-18T08:18:36;15.40;;;9.10;;
76157;SDS011;64907;51.574;6.502;2022-12-18T08:21:11;14.88;;;8.98;;
76157;SDS011;64907;51.574;6.502;2022-12-18T08:23:38;13.55;;;8.43;;
76157;SDS011;64907;51.574;6.502;2022-12-18T08:26:04;13.82;;;8.02;;
76157;SDS011;64907;51.574;6.502;2022-12-18T08:28:29;16.40;;;8.82;;
76157;SDS011;64907;51.574;6.502;2022-12-18T08:30:55;17.55;;;9.38;;
76157;SDS011;64907;51.574;6.502;2022-12-18T08:33:20;15.45;;;9.18;;
76157;SDS011;64907;51.574;6.502;2022-12-18T08:35:45;12.52;;;8.15;;
76157;SDS011;64907;51.574;6.502;2022-12-18T08:38:10;13.45;;;8.93;;
76157;SDS011;64907;51.574;6.502;2022-12-18T08:40:35;13.43;;;7.63;;
76157;SDS011;64907;51.574;6.502;2022-12-18T08:43:02;12.80;;;8.23;;
76157;SDS011;64907;51.574;6.502;2022-12-18T08:45:46;13.98;;;8.13;;
76157;SDS011;64907;51.574;6.502;2022-12-18T08:48:12;14.93;;;8.52;;
76157;SDS011;64907;51.574;6.502;2022-12-18T08:50:37;13.50;;;8.00;;
76157;SDS011;64907;51.574;6.502;2022-12-18T08:53:02;11.50;;;8.00;;
76157;SDS011;64907;51.574;6.502;2022-12-18T08:55:28;12.65;;;8.00;;
76157;SDS011;64907;51.574;6.502;2022-12-18T08:57:53;11.95;;;8.10;;
76157;SDS011;64907;51.574;6.502;2022-12-18T09:00:18;13.65;;;8.80;;
76157;SDS011;64907;51.574;6.502;2022-12-18T09:02:43;11.88;;;7.80;;
76157;SDS011;64907;51.574;6.502;2022-12-18T09:05:08;10.93;;;8.55;;
76157;SDS011;64907;51.574;6.502;2022-12-18T09:07:34;11.80;;;7.55;;
76157;SDS011;64907;51.574;6.502;2022-12-18T09:09:59;11.52;;;8.05;;
76157;SDS011;64907;51.574;6.502;2022-12-18T09:12:25;12.15;;;7.65;;
76157;SDS011;64907;51.574;6.502;2022-12-18T09:14:50;10.50;;;7.20;;
76157;SDS011;64907;51.574;6.502;2022-12-18T09:17:15;12.55;;;8.18;;
76157;SDS011;64907;51.574;6.502;2022-12-18T09:19:40;11.98;;;8.15;;
76157;SDS011;64907;51.574;6.502;2022-12-18T09:22:06;13.10;;;8.18;;
76157;SDS011;64907;51.574;6.502;2022-12-18T09:24:31;9.85;;;7.38;;
76157;SDS011;64907;51.574;6.502;2022-12-18T09:26:56;12.20;;;8.30;;
76157;SDS011;64907;51.574;6.502;2022-12-18T09:29:21;12.50;;;8.32;;
76157;SDS011;64907;51.574;6.502;2022-12-18T09:31:46;14.63;;;8.32;;
76157;SDS011;64907;51.574;6.502;2022-12-18T09:34:13;13.48;;;8.40;;
76157;SDS011;64907;51.574;6.502;2022-12-18T09:36:38;10.55;;;8.15;;
76157;SDS011;64907;51.574;6.502;2022-12-18T09:39:03;13.40;;;8.90;;
76157;SDS011;64907;51.574;6.502;2022-12-18T09:43:59;13.05;;;8.32;;
76157;SDS011;64907;51.574;6.502;2022-12-18T09:46:30;13.00;;;8.25;;
76157;SDS011;64907;51.574;6.502;2022-12-18T09:48:56;12.23;;;8.15;;
76157;SDS011;64907;51.574;6.502;2022-12-18T09:51:26;13.57;;;7.90;;
76157;SDS011;64907;51.574;6.502;2022-12-18T09:53:57;12.38;;;8.73;;
76157;SDS011;64907;51.574;6.502;2022-12-18T09:56:24;13.27;;;8.18;;
76157;SDS011;64907;51.574;6.502;2022-12-18T10:01:21;10.57;;;7.43;;
76157;SDS011;64907;51.574;6.502;2022-12-18T10:03:47;11.77;;;8.07;;
76157;SDS011;64907;51.574;6.502;2022-12-18T10:14:09;12.55;;;7.75;;
76157;SDS011;64907;51.574;6.502;2022-12-18T10:16:56;11.85;;;8.18;;
76157;SDS011;64907;51.574;6.502;2022-12-18T10:19:27;12.98;;;7.30;;
76157;SDS011;64907;51.574;6.502;2022-12-18T10:27:42;10.90;;;7.65;;
76157;SDS011;64907;51.574;6.502;2022-12-18T10:30:13;10.75;;;7.70;;
76157;SDS011;64907;51.574;6.502;2022-12-18T10:32:39;12.15;;;7.75;;
76157;SDS011;64907;51.574;6.502;2022-12-18T10:35:04;10.57;;;7.90;;
76157;SDS011;64907;51.574;6.502;2022-12-18T10:37:30;13.43;;;8.30;;
76157;SDS011;64907;51.574;6.502;2022-12-18T10:42:33;11.18;;;7.85;;
76157;SDS011;64907;51.574;6.502;2022-12-18T10:45:03;12.40;;;7.70;;
76157;SDS011;64907;51.574;6.502;2022-12-18T10:47:29;9.50;;;7.47;;
76157;SDS011;64907;51.574;6.502;2022-12-18T10:49:54;10.80;;;7.65;;
76157;SDS011;64907;51.574;6.502;2022-12-18T10:54:52;12.93;;;7.97;;
76157;SDS011;64907;51.574;6.502;2022-12-18T10:59:59;11.35;;;7.32;;
76157;SDS011;64907;51.574;6.502;2022-12-18T11:05:52;13.25;;;8.77;;
76157;SDS011;64907;51.574;6.502;2022-12-18T11:07:52;14.73;;;9.00;;
76157;SDS011;64907;51.574;6.502;2022-12-18T11:10:19;10.98;;;8.00;;
76157;SDS011;64907;51.574;6.502;2022-12-18T11:12:45;15.20;;;8.95;;
76157;SDS011;64907;51.574;6.502;2022-12-18T11:15:21;14.98;;;9.25;;
76157;SDS011;64907;51.574;6.502;2022-12-18T11:17:48;16.00;;;8.18;;
76157;SDS011;64907;51.574;6.502;2022-12-18T11:22:59;13.85;;;8.43;;
76157;SDS011;64907;51.574;6.502;2022-12-18T11:25:25;12.05;;;8.45;;
76157;SDS011;64907;51.574;6.502;2022-12-18T11:28:25;14.15;;;8.65;;
76157;SDS011;64907;51.574;6.502;2022-12-18T11:30:50;13.40;;;8.32;;
76157;SDS011;64907;51.574;6.502;2022-12-18T11:33:33;13.63;;;8.50;;
76157;SDS011;64907;51.574;6.502;2022-12-18T11:36:02;12.35;;;7.85;;
76157;SDS011;64907;51.574;6.502;2022-12-18T11:41:12;13.68;;;8.55;;
76157;SDS011;64907;51.574;6.502;2022-12-18T11:43:48;14.10;;;9.07;;
76157;SDS011;64907;51.574;6.502;2022-12-18T11:46:17;12.80;;;8.77;;
76157;SDS011;64907;51.574;6.502;2022-12-18T11:48:52;14.25;;;8.13;;
76157;SDS011;64907;51.574;6.502;2022-12-18T11:51:29;18.60;;;8.63;;
76157;SDS011;64907;51.574;6.502;2022-12-18T11:53:56;14.77;;;9.40;;
76157;SDS011;64907;51.574;6.502;2022-12-18T11:56:39;13.00;;;8.65;;
76157;SDS011;64907;51.574;6.502;2022-12-18T11:59:13;15.98;;;9.10;;
76157;SDS011;64907;51.574;6.502;2022-12-18T12:01:46;13.20;;;9.10;;
76157;SDS011;64907;51.574;6.502;2022-12-18T12:09:22;18.13;;;9.38;;
76157;SDS011;64907;51.574;6.502;2022-12-18T12:14:29;15.90;;;9.75;;
76157;SDS011;64907;51.574;6.502;2022-12-18T12:27:18;13.23;;;9.18;;
76157;SDS011;64907;51.574;6.502;2022-12-18T12:35:12;19.08;;;9.43;;
76157;SDS011;64907;51.574;6.502;2022-12-18T12:37:46;14.40;;;9.38;;
76157;SDS011;64907;51.574;6.502;2022-12-18T12:40:17;15.55;;;9.43;;
76157;SDS011;64907;51.574;6.502;2022-12-18T12:42:45;15.80;;;9.82;;
76157;SDS011;64907;51.574;6.502;2022-12-18T12:48:01;14.57;;;10.20;;
76157;SDS011;64907;51.574;6.502;2022-12-18T12:50:27;16.42;;;10.25;;
76157;SDS011;64907;51.574;6.502;2022-12-18T12:52:53;14.85;;;10.38;;
76157;SDS011;64907;51.574;6.502;2022-12-18T12:55:24;14.45;;;10.07;;
76157;SDS011;64907;51.574;6.502;2022-12-18T13:00:21;16.98;;;9.27;;
76157;SDS011;64907;51.574;6.502;2022-12-18T13:05:42;17.98;;;10.32;;
76157;SDS011;64907;51.574;6.502;2022-12-18T13:08:21;18.48;;;11.20;;
76157;SDS011;64907;51.574;6.502;2022-12-18T13:10:47;17.08;;;10.63;;
76157;SDS011;64907;51.574;6.502;2022-12-18T13:13:12;16.38;;;10.45;;
76157;SDS011;64907;51.574;6.502;2022-12-18T13:15:44;17.92;;;10.82;;
76157;SDS011;64907;51.574;6.502;2022-12-18T13:20:38;16.77;;;10.50;;
76157;SDS011;64907;51.574;6.502;2022-12-18T13:23:25;20.73;;;11.40;;
76157;SDS011;64907;51.574;6.502;2022-12-18T13:31:15;18.33;;;10.85;;
76157;SDS011;64907;51.574;6.502;2022-12-18T13:34:16;16.27;;;10.27;;
76157;SDS011;64907;51.574;6.502;2022-12-18T13:36:42;19.08;;;11.00;;
76157;SDS011;64907;51.574;6.502;2022-12-18T13:39:09;18.60;;;11.60;;
76157;SDS011;64907;51.574;6.502;2022-12-18T13:44:24;19.38;;;11.68;;
76157;SDS011;64907;51.574;6.502;2022-12-18T13:46:51;16.15;;;10.70;;
76157;SDS011;64907;51.574;6.502;2022-12-18T13:49:21;20.27;;;11.80;;
76157;SDS011;64907;51.574;6.502;2022-12-18T13:51:48;19.05;;;12.05;;
76157;SDS011;64907;51.574;6.502;2022-12-18T13:56:43;17.13;;;10.98;;
76157;SDS011;64907;51.574;6.502;2022-12-18T14:01:33;21.20;;;12.38;;
76157;SDS011;64907;51.574;6.502;2022-12-18T14:04:08;20.83;;;12.75;;
76157;SDS011;64907;51.574;6.502;2022-12-18T14:06:34;21.92;;;12.40;;
76157;SDS011;64907;51.574;6.502;2022-12-18T14:11:27;21.80;;;12.77;;
76157;SDS011;64907;51.574;6.502;2022-12-18T14:13:53;23.55;;;12.27;;
76157;SDS011;64907;51.574;6.502;2022-12-18T14:16:18;19.42;;;13.15;;
76157;SDS011;64907;51.574;6.502;2022-12-18T14:24:04;25.92;;;13.35;;
76157;SDS011;64907;51.574;6.502;2022-12-18T14:26:30;18.52;;;12.50;;
76157;SDS011;64907;51.574;6.502;2022-12-18T14:28:56;22.48;;;13.35;;
76157;SDS011;64907;51.574;6.502;2022-12-18T14:34:07;18.55;;;12.45;;
76157;SDS011;64907;51.574;6.502;2022-12-18T14:36:39;23.95;;;12.80;;
76157;SDS011;64907;51.574;6.502;2022-12-18T14:39:05;24.15;;;13.57;;
76157;SDS011;64907;51.574;6.502;2022-12-18T14:41:30;22.27;;;12.88;;
76157;SDS011;64907;51.574;6.502;2022-12-18T14:49:03;24.55;;;14.07;;
76157;SDS011;64907;51.574;6.502;2022-12-18T14:51:30;20.90;;;13.30;;
76157;SDS011;64907;51.574;6.502;2022-12-18T14:54:03;22.35;;;13.15;;
76157;SDS011;64907;51.574;6.502;2022-12-18T14:56:36;24.13;;;14.48;;
76157;SDS011;64907;51.574;6.502;2022-12-18T14:59:03;21.63;;;13.65;;
76157;SDS011;64907;51.574;6.502;2022-12-18T15:01:29;22.05;;;15.00;;
76157;SDS011;64907;51.574;6.502;2022-12-18T15:03:56;22.33;;;14.18;;
76157;SDS011;64907;51.574;6.502;2022-12-18T15:06:34;22.33;;;14.02;;
76157;SDS011;64907;51.574;6.502;2022-12-18T15:09:23;23.55;;;13.65;;
76157;SDS011;64907;51.574;6.502;2022-12-18T15:11:48;28.40;;;16.08;;
76157;SDS011;64907;51.574;6.502;2022-12-18T15:14:23;25.88;;;14.88;;
76157;SDS011;64907;51.574;6.502;2022-12-18T15:16:50;24.42;;;13.85;;
76157;SDS011;64907;51.574;6.502;2022-12-18T15:19:16;22.75;;;13.98;;
76157;SDS011;64907;51.574;6.502;2022-12-18T15:21:42;22.48;;;14.35;;
76157;SDS011;64907;51.574;6.502;2022-12-18T15:24:24;20.08;;;13.95;;
76157;SDS011;64907;51.574;6.502;2022-12-18T15:26:51;22.38;;;14.57;;
76157;SDS011;64907;51.574;6.502;2022-12-18T15:29:20;21.77;;;13.80;;
76157;SDS011;64907;51.574;6.502;2022-12-18T15:31:57;27.23;;;14.00;;
76157;SDS011;64907;51.574;6.502;2022-12-18T15:36:52;22.38;;;13.98;;
76157;SDS011;64907;51.574;6.502;2022-12-18T15:39:17;26.27;;;14.45;;
76157;SDS011;64907;51.574;6.502;2022-12-18T15:41:42;27.75;;;15.95;;
76157;SDS011;64907;51.574;6.502;2022-12-18T15:44:27;27.73;;;14.98;;
76157;SDS011;64907;51.574;6.502;2022-12-18T15:46:56;29.23;;;14.83;;
76157;SDS011;64907;51.574;6.502;2022-12-18T15:49:21;26.38;;;15.32;;
76157;SDS011;64907;51.574;6.502;2022-12-18T15:51:48;26.27;;;14.82;;
76157;SDS011;64907;51.574;6.502;2022-12-18T15:54:15;28.80;;;15.52;;
76157;SDS011;64907;51.574;6.502;2022-12-18T15:57:03;28.30;;;15.85;;
76157;SDS011;64907;51.574;6.502;2022-12-18T15:59:47;27.40;;;16.20;;
76157;SDS011;64907;51.574;6.502;2022-12-18T16:02:13;29.73;;;16.05;;
76157;SDS011;64907;51.574;6.502;2022-12-18T16:04:40;29.27;;;17.55;;
76157;SDS011;64907;51.574;6.502;2022-12-18T16:07:07;27.80;;;16.92;;
76157;SDS011;64907;51.574;6.502;2022-12-18T16:09:32;24.45;;;15.63;;
76157;SDS011;64907;51.574;6.502;2022-12-18T16:12:00;29.60;;;17.05;;
76157;SDS011;64907;51.574;6.502;2022-12-18T16:14:26;26.98;;;15.85;;
76157;SDS011;64907;51.574;6.502;2022-12-18T16:16:53;27.42;;;15.75;;
76157;SDS011;64907;51.574;6.502;2022-12-18T16:19:18;26.55;;;16.42;;
76157;SDS011;64907;51.574;6.502;2022-12-18T16:21:44;26.67;;;15.85;;
76157;SDS011;64907;51.574;6.502;2022-12-18T16:24:25;27.85;;;16.13;;
76157;SDS011;64907;51.574;6.502;2022-12-18T16:26:51;29.05;;;16.88;;
76157;SDS011;64907;51.574;6.502;2022-12-18T16:29:16;27.80;;;16.98;;
76157;SDS011;64907;51.574;6.502;2022-12-18T16:31:42;24.95;;;15.65;;
76157;SDS011;64907;51.574;6.502;2022-12-18T16:34:23;30.05;;;16.85;;
76157;SDS011;64907;51.574;6.502;2022-12-18T16:36:51;26.88;;;16.23;;
76157;SDS011;64907;51.574;6.502;2022-12-18T16:39:18;32.65;;;17.98;;
76157;SDS011;64907;51.574;6.502;2022-12-18T16:41:43;29.80;;;17.27;;
76157;SDS011;64907;51.574;6.502;2022-12-18T16:44:08;33.38;;;17.88;;
76157;SDS011;64907;51.574;6.502;2022-12-18T16:46:34;30.35;;;18.45;;